sensor_id;sensor_type;location;lat;lon;timestamp;P1;durP1;ratioP1;P2;durP2;ratioP2
35693;SDS011;21812;55.536;37.664;2022-08-21T00:00:15;48.08;;;33.90;;
35693;SDS011;21812;55.536;37.664;2022-08-21T00:02:45;49.80;;;37.55;;
35693;SDS011;21812;55.536;37.664;2022-08-21T00:05:14;54.28;;;34.58;;
35693;SDS011;21812;55.536;37.664;2022-08-21T00:07:40;53.88;;;37.20;;
35693;SDS011;21812;55.536;37.664;2022-08-21T00:10:06;51.90;;;38.15;;
35693;SDS011;21812;55.536;37.664;2022-08-21T00:12:33;57.15;;;37.47;;
35693;SDS011;21812;55.536;37.664;2022-08-21T00:14:59;56.65;;;36.80;;
35693;SDS011;21812;55.536;37.664;2022-08-21T00:17:25;59.85;;;38.85;;
35693;SDS011;21812;55.536;37.664;2022-08-21T00:19:51;57.90;;;37.55;;
35693;SDS011;21812;55.536;37.664;2022-08-21T00:22:16;58.25;;;38.92;;
35693;SDS011;21812;55.536;37.664;2022-08-21T00:24:42;65.97;;;40.72;;
35693;SDS011;21812;55.536;37.664;2022-08-21T00:27:08;66.00;;;41.35;;
35693;SDS011;21812;55.536;37.664;2022-08-21T00:29:34;62.25;;;40.90;;
35693;SDS011;21812;55.536;37.664;2022-08-21T00:31:59;71.40;;;44.70;;
35693;SDS011;21812;55.536;37.664;2022-08-21T00:34:25;54.58;;;37.67;;
35693;SDS011;21812;55.536;37.664;2022-08-21T00:36:51;68.43;;;46.28;;
35693;SDS011;21812;55.536;37.664;2022-08-21T00:39:17;60.45;;;38.75;;
35693;SDS011;21812;55.536;37.664;2022-08-21T00:41:42;64.35;;;46.42;;
35693;SDS011;21812;55.536;37.664;2022-08-21T00:44:09;53.45;;;39.60;;
35693;SDS011;21812;55.536;37.664;2022-08-21T00:46:37;55.72;;;38.85;;
35693;SDS011;21812;55.536;37.664;2022-08-21T00:49:04;54.95;;;38.45;;
35693;SDS011;21812;55.536;37.664;2022-08-21T00:51:38;58.78;;;40.15;;
35693;SDS011;21812;55.536;37.664;2022-08-21T00:54:05;63.97;;;40.92;;
35693;SDS011;21812;55.536;37.664;2022-08-21T00:56:32;62.42;;;39.67;;
35693;SDS011;21812;55.536;37.664;2022-08-21T00:58:58;64.35;;;40.65;;
35693;SDS011;21812;55.536;37.664;2022-08-21T01:01:25;54.63;;;38.33;;
35693;SDS011;21812;55.536;37.664;2022-08-21T01:03:51;60.08;;;41.63;;
35693;SDS011;21812;55.536;37.664;2022-08-21T01:06:17;57.97;;;42.47;;
35693;SDS011;21812;55.536;37.664;2022-08-21T01:08:43;57.38;;;39.08;;
35693;SDS011;21812;55.536;37.664;2022-08-21T01:11:09;61.13;;;39.80;;
35693;SDS011;21812;55.536;37.664;2022-08-21T01:13:36;61.60;;;41.58;;
35693;SDS011;21812;55.536;37.664;2022-08-21T01:16:12;55.10;;;39.45;;
35693;SDS011;21812;55.536;37.664;2022-08-21T01:18:41;58.80;;;42.38;;
35693;SDS011;21812;55.536;37.664;2022-08-21T01:21:27;65.13;;;41.78;;
35693;SDS011;21812;55.536;37.664;2022-08-21T01:23:53;58.05;;;42.00;;
35693;SDS011;21812;55.536;37.664;2022-08-21T01:26:21;56.78;;;39.78;;
35693;SDS011;21812;55.536;37.664;2022-08-21T01:28:57;53.88;;;39.72;;
35693;SDS011;21812;55.536;37.664;2022-08-21T01:31:27;65.55;;;44.72;;
35693;SDS011;21812;55.536;37.664;2022-08-21T01:33:54;66.80;;;47.63;;
35693;SDS011;21812;55.536;37.664;2022-08-21T01:36:21;54.35;;;40.42;;
35693;SDS011;21812;55.536;37.664;2022-08-21T01:38:47;67.90;;;43.78;;
35693;SDS011;21812;55.536;37.664;2022-08-21T01:41:14;55.38;;;38.88;;
35693;SDS011;21812;55.536;37.664;2022-08-21T01:43:42;64.95;;;46.28;;
35693;SDS011;21812;55.536;37.664;2022-08-21T01:46:09;62.08;;;42.63;;
35693;SDS011;21812;55.536;37.664;2022-08-21T01:48:36;52.80;;;40.25;;
35693;SDS011;21812;55.536;37.664;2022-08-21T01:51:02;62.28;;;41.03;;
35693;SDS011;21812;55.536;37.664;2022-08-21T01:53:29;56.35;;;40.78;;
35693;SDS011;21812;55.536;37.664;2022-08-21T01:55:54;62.70;;;42.45;;
35693;SDS011;21812;55.536;37.664;2022-08-21T01:58:21;61.67;;;41.85;;
35693;SDS011;21812;55.536;37.664;2022-08-21T02:00:46;56.65;;;39.47;;
35693;SDS011;21812;55.536;37.664;2022-08-21T02:03:18;54.78;;;38.33;;
35693;SDS011;21812;55.536;37.664;2022-08-21T02:05:44;56.92;;;39.72;;
35693;SDS011;21812;55.536;37.664;2022-08-21T02:08:10;57.20;;;41.63;;
35693;SDS011;21812;55.536;37.664;2022-08-21T02:10:36;58.28;;;39.17;;
35693;SDS011;21812;55.536;37.664;2022-08-21T02:13:02;54.33;;;38.65;;
35693;SDS011;21812;55.536;37.664;2022-08-21T02:15:29;60.58;;;40.80;;
35693;SDS011;21812;55.536;37.664;2022-08-21T02:17:57;57.78;;;39.75;;
35693;SDS011;21812;55.536;37.664;2022-08-21T02:22:51;62.00;;;41.80;;
35693;SDS011;21812;55.536;37.664;2022-08-21T02:25:18;58.05;;;37.80;;
35693;SDS011;21812;55.536;37.664;2022-08-21T02:27:46;50.60;;;35.83;;
35693;SDS011;21812;55.536;37.664;2022-08-21T02:30:15;54.88;;;37.92;;
35693;SDS011;21812;55.536;37.664;2022-08-21T02:32:44;51.63;;;36.30;;
35693;SDS011;21812;55.536;37.664;2022-08-21T02:35:10;48.75;;;33.67;;
35693;SDS011;21812;55.536;37.664;2022-08-21T02:40:41;54.00;;;36.97;;
35693;SDS011;21812;55.536;37.664;2022-08-21T02:43:09;49.17;;;32.45;;
35693;SDS011;21812;55.536;37.664;2022-08-21T02:45:36;52.83;;;36.75;;
35693;SDS011;21812;55.536;37.664;2022-08-21T02:48:04;45.00;;;32.22;;
35693;SDS011;21812;55.536;37.664;2022-08-21T02:50:38;44.20;;;33.38;;
35693;SDS011;21812;55.536;37.664;2022-08-21T02:53:16;45.45;;;31.02;;
35693;SDS011;21812;55.536;37.664;2022-08-21T02:55:43;49.10;;;33.08;;
35693;SDS011;21812;55.536;37.664;2022-08-21T02:58:11;43.13;;;30.85;;
35693;SDS011;21812;55.536;37.664;2022-08-21T03:00:38;49.22;;;31.73;;
35693;SDS011;21812;55.536;37.664;2022-08-21T03:03:04;40.38;;;30.05;;
35693;SDS011;21812;55.536;37.664;2022-08-21T03:05:31;46.80;;;33.88;;
35693;SDS011;21812;55.536;37.664;2022-08-21T03:07:59;44.03;;;30.33;;
35693;SDS011;21812;55.536;37.664;2022-08-21T03:10:26;54.45;;;36.30;;
35693;SDS011;21812;55.536;37.664;2022-08-21T03:12:52;40.92;;;30.30;;
35693;SDS011;21812;55.536;37.664;2022-08-21T03:15:20;44.63;;;29.35;;
35693;SDS011;21812;55.536;37.664;2022-08-21T03:17:47;43.65;;;29.10;;
35693;SDS011;21812;55.536;37.664;2022-08-21T03:20:14;40.55;;;28.25;;
35693;SDS011;21812;55.536;37.664;2022-08-21T03:22:41;39.80;;;28.75;;
35693;SDS011;21812;55.536;37.664;2022-08-21T03:25:07;40.80;;;29.42;;
35693;SDS011;21812;55.536;37.664;2022-08-21T03:27:33;39.80;;;27.60;;
35693;SDS011;21812;55.536;37.664;2022-08-21T03:30:00;40.92;;;29.40;;
35693;SDS011;21812;55.536;37.664;2022-08-21T03:32:29;41.92;;;27.58;;
35693;SDS011;21812;55.536;37.664;2022-08-21T03:34:56;42.63;;;27.92;;
35693;SDS011;21812;55.536;37.664;2022-08-21T03:37:23;40.92;;;26.33;;
35693;SDS011;21812;55.536;37.664;2022-08-21T03:39:49;36.75;;;26.80;;
35693;SDS011;21812;55.536;37.664;2022-08-21T03:42:16;38.45;;;26.65;;
35693;SDS011;21812;55.536;37.664;2022-08-21T03:44:41;32.55;;;25.52;;
35693;SDS011;21812;55.536;37.664;2022-08-21T03:47:07;36.10;;;24.38;;
35693;SDS011;21812;55.536;37.664;2022-08-21T03:49:33;35.83;;;25.67;;
35693;SDS011;21812;55.536;37.664;2022-08-21T03:51:59;34.72;;;24.75;;
35693;SDS011;21812;55.536;37.664;2022-08-21T03:54:25;33.25;;;24.85;;
35693;SDS011;21812;55.536;37.664;2022-08-21T03:56:51;36.20;;;26.42;;
35693;SDS011;21812;55.536;37.664;2022-08-21T03:59:17;37.55;;;24.50;;
35693;SDS011;21812;55.536;37.664;2022-08-21T04:01:56;35.08;;;24.58;;
35693;SDS011;21812;55.536;37.664;2022-08-21T04:04:24;35.10;;;24.60;;
35693;SDS011;21812;55.536;37.664;2022-08-21T04:06:51;36.72;;;25.63;;
35693;SDS011;21812;55.536;37.664;2022-08-21T04:09:17;35.83;;;23.83;;
35693;SDS011;21812;55.536;37.664;2022-08-21T04:11:43;40.58;;;24.70;;
35693;SDS011;21812;55.536;37.664;2022-08-21T04:14:11;35.78;;;24.30;;
35693;SDS011;21812;55.536;37.664;2022-08-21T04:16:37;32.72;;;24.88;;
35693;SDS011;21812;55.536;37.664;2022-08-21T04:19:05;37.45;;;23.70;;
35693;SDS011;21812;55.536;37.664;2022-08-21T04:21:31;32.45;;;22.50;;
35693;SDS011;21812;55.536;37.664;2022-08-21T04:23:57;35.72;;;23.75;;
35693;SDS011;21812;55.536;37.664;2022-08-21T04:26:24;35.10;;;22.65;;
35693;SDS011;21812;55.536;37.664;2022-08-21T04:28:51;31.70;;;21.60;;
35693;SDS011;21812;55.536;37.664;2022-08-21T04:31:17;33.45;;;22.13;;
35693;SDS011;21812;55.536;37.664;2022-08-21T04:33:43;36.03;;;24.50;;
35693;SDS011;21812;55.536;37.664;2022-08-21T04:36:11;30.75;;;22.85;;
35693;SDS011;21812;55.536;37.664;2022-08-21T04:38:37;35.03;;;26.40;;
35693;SDS011;21812;55.536;37.664;2022-08-21T04:41:03;37.92;;;26.50;;
35693;SDS011;21812;55.536;37.664;2022-08-21T04:43:30;35.47;;;25.70;;
35693;SDS011;21812;55.536;37.664;2022-08-21T04:45:56;43.38;;;28.52;;
35693;SDS011;21812;55.536;37.664;2022-08-21T04:48:22;38.10;;;25.90;;
35693;SDS011;21812;55.536;37.664;2022-08-21T04:50:50;37.90;;;27.10;;
35693;SDS011;21812;55.536;37.664;2022-08-21T04:56:11;38.72;;;25.88;;
35693;SDS011;21812;55.536;37.664;2022-08-21T04:58:47;41.60;;;27.40;;
35693;SDS011;21812;55.536;37.664;2022-08-21T05:01:19;40.55;;;28.27;;
35693;SDS011;21812;55.536;37.664;2022-08-21T05:03:47;44.92;;;28.33;;
35693;SDS011;21812;55.536;37.664;2022-08-21T05:06:16;43.70;;;29.35;;
35693;SDS011;21812;55.536;37.664;2022-08-21T05:08:42;39.45;;;27.60;;
35693;SDS011;21812;55.536;37.664;2022-08-21T05:11:09;43.80;;;30.70;;
35693;SDS011;21812;55.536;37.664;2022-08-21T05:13:36;43.63;;;29.02;;
35693;SDS011;21812;55.536;37.664;2022-08-21T05:16:01;41.72;;;27.20;;
35693;SDS011;21812;55.536;37.664;2022-08-21T05:18:28;40.38;;;27.58;;
35693;SDS011;21812;55.536;37.664;2022-08-21T05:20:53;37.83;;;28.15;;
35693;SDS011;21812;55.536;37.664;2022-08-21T05:23:19;44.47;;;29.10;;
35693;SDS011;21812;55.536;37.664;2022-08-21T05:25:45;37.80;;;29.05;;
35693;SDS011;21812;55.536;37.664;2022-08-21T05:28:11;38.53;;;26.98;;
35693;SDS011;21812;55.536;37.664;2022-08-21T05:30:38;43.08;;;28.27;;
35693;SDS011;21812;55.536;37.664;2022-08-21T05:33:05;42.38;;;28.05;;
35693;SDS011;21812;55.536;37.664;2022-08-21T05:35:32;41.85;;;31.02;;
35693;SDS011;21812;55.536;37.664;2022-08-21T05:37:59;52.08;;;31.33;;
35693;SDS011;21812;55.536;37.664;2022-08-21T05:40:25;40.42;;;26.35;;
35693;SDS011;21812;55.536;37.664;2022-08-21T05:42:52;40.28;;;26.88;;
35693;SDS011;21812;55.536;37.664;2022-08-21T05:45:19;40.97;;;27.42;;
35693;SDS011;21812;55.536;37.664;2022-08-21T05:47:44;43.70;;;29.13;;
35693;SDS011;21812;55.536;37.664;2022-08-21T05:50:10;43.22;;;28.10;;
35693;SDS011;21812;55.536;37.664;2022-08-21T05:52:36;36.38;;;26.98;;
35693;SDS011;21812;55.536;37.664;2022-08-21T05:55:12;36.22;;;25.48;;
35693;SDS011;21812;55.536;37.664;2022-08-21T05:57:38;44.30;;;27.33;;
35693;SDS011;21812;55.536;37.664;2022-08-21T06:00:07;41.00;;;27.80;;
35693;SDS011;21812;55.536;37.664;2022-08-21T06:02:39;38.92;;;26.73;;
35693;SDS011;21812;55.536;37.664;2022-08-21T06:05:05;40.13;;;26.40;;
35693;SDS011;21812;55.536;37.664;2022-08-21T06:07:31;35.83;;;25.25;;
35693;SDS011;21812;55.536;37.664;2022-08-21T06:10:06;33.90;;;24.63;;
35693;SDS011;21812;55.536;37.664;2022-08-21T06:12:32;38.28;;;26.33;;
35693;SDS011;21812;55.536;37.664;2022-08-21T06:14:58;35.88;;;24.23;;
35693;SDS011;21812;55.536;37.664;2022-08-21T06:17:23;41.53;;;24.88;;
35693;SDS011;21812;55.536;37.664;2022-08-21T06:19:52;35.10;;;25.33;;
35693;SDS011;21812;55.536;37.664;2022-08-21T06:22:18;35.35;;;24.02;;
35693;SDS011;21812;55.536;37.664;2022-08-21T06:24:44;43.08;;;24.75;;
35693;SDS011;21812;55.536;37.664;2022-08-21T06:27:10;35.60;;;23.92;;
35693;SDS011;21812;55.536;37.664;2022-08-21T06:29:35;29.45;;;22.92;;
35693;SDS011;21812;55.536;37.664;2022-08-21T06:32:02;35.33;;;23.85;;
35693;SDS011;21812;55.536;37.664;2022-08-21T06:34:28;34.90;;;22.35;;
35693;SDS011;21812;55.536;37.664;2022-08-21T06:36:56;31.30;;;24.15;;
35693;SDS011;21812;55.536;37.664;2022-08-21T06:39:21;31.95;;;23.67;;
35693;SDS011;21812;55.536;37.664;2022-08-21T06:41:47;33.47;;;23.90;;
35693;SDS011;21812;55.536;37.664;2022-08-21T06:44:16;40.28;;;25.02;;
35693;SDS011;21812;55.536;37.664;2022-08-21T06:46:42;35.85;;;24.15;;
35693;SDS011;21812;55.536;37.664;2022-08-21T06:49:07;32.40;;;24.27;;
35693;SDS011;21812;55.536;37.664;2022-08-21T06:51:33;37.38;;;24.60;;
35693;SDS011;21812;55.536;37.664;2022-08-21T06:53:59;33.80;;;22.92;;
35693;SDS011;21812;55.536;37.664;2022-08-21T06:56:25;37.20;;;22.40;;
35693;SDS011;21812;55.536;37.664;2022-08-21T06:58:53;34.25;;;23.90;;
35693;SDS011;21812;55.536;37.664;2022-08-21T07:01:20;38.25;;;23.17;;
35693;SDS011;21812;55.536;37.664;2022-08-21T07:03:49;35.75;;;24.10;;
35693;SDS011;21812;55.536;37.664;2022-08-21T07:06:15;28.90;;;23.10;;
35693;SDS011;21812;55.536;37.664;2022-08-21T07:08:41;35.35;;;22.45;;
35693;SDS011;21812;55.536;37.664;2022-08-21T07:11:09;34.60;;;23.95;;
35693;SDS011;21812;55.536;37.664;2022-08-21T07:13:42;32.63;;;22.02;;
35693;SDS011;21812;55.536;37.664;2022-08-21T07:16:08;29.00;;;21.77;;
35693;SDS011;21812;55.536;37.664;2022-08-21T07:18:33;37.28;;;21.85;;
35693;SDS011;21812;55.536;37.664;2022-08-21T07:21:03;27.58;;;21.15;;
35693;SDS011;21812;55.536;37.664;2022-08-21T07:23:36;35.40;;;21.83;;
35693;SDS011;21812;55.536;37.664;2022-08-21T07:26:04;31.50;;;20.00;;
35693;SDS011;21812;55.536;37.664;2022-08-21T07:28:30;26.98;;;19.10;;
35693;SDS011;21812;55.536;37.664;2022-08-21T07:30:57;29.75;;;20.75;;
35693;SDS011;21812;55.536;37.664;2022-08-21T07:33:25;30.75;;;19.75;;
35693;SDS011;21812;55.536;37.664;2022-08-21T07:35:52;30.40;;;20.02;;
35693;SDS011;21812;55.536;37.664;2022-08-21T07:38:18;36.63;;;20.50;;
35693;SDS011;21812;55.536;37.664;2022-08-21T07:40:44;33.50;;;18.38;;
35693;SDS011;21812;55.536;37.664;2022-08-21T07:43:11;23.38;;;16.35;;
35693;SDS011;21812;55.536;37.664;2022-08-21T07:45:37;25.27;;;16.23;;
35693;SDS011;21812;55.536;37.664;2022-08-21T07:48:03;28.40;;;17.30;;
35693;SDS011;21812;55.536;37.664;2022-08-21T07:50:30;26.80;;;13.85;;
35693;SDS011;21812;55.536;37.664;2022-08-21T07:52:56;22.42;;;15.38;;
35693;SDS011;21812;55.536;37.664;2022-08-21T07:55:22;25.55;;;13.82;;
35693;SDS011;21812;55.536;37.664;2022-08-21T07:57:48;25.77;;;13.88;;
35693;SDS011;21812;55.536;37.664;2022-08-21T08:00:16;20.80;;;14.45;;
35693;SDS011;21812;55.536;37.664;2022-08-21T08:02:45;23.92;;;12.32;;
35693;SDS011;21812;55.536;37.664;2022-08-21T08:05:16;20.35;;;12.52;;
35693;SDS011;21812;55.536;37.664;2022-08-21T08:07:42;20.30;;;13.65;;
35693;SDS011;21812;55.536;37.664;2022-08-21T08:10:08;20.27;;;12.45;;
35693;SDS011;21812;55.536;37.664;2022-08-21T08:12:36;29.83;;;23.35;;
35693;SDS011;21812;55.536;37.664;2022-08-21T08:15:05;58.88;;;24.42;;
35693;SDS011;21812;55.536;37.664;2022-08-21T08:17:33;165.88;;;51.85;;
35693;SDS011;21812;55.536;37.664;2022-08-21T08:19:59;50.42;;;19.52;;
35693;SDS011;21812;55.536;37.664;2022-08-21T08:22:26;34.45;;;18.20;;
35693;SDS011;21812;55.536;37.664;2022-08-21T08:24:52;34.90;;;16.13;;
35693;SDS011;21812;55.536;37.664;2022-08-21T08:27:19;36.38;;;17.67;;
35693;SDS011;21812;55.536;37.664;2022-08-21T08:29:46;34.95;;;16.38;;
35693;SDS011;21812;55.536;37.664;2022-08-21T08:32:12;22.00;;;14.05;;
35693;SDS011;21812;55.536;37.664;2022-08-21T08:34:39;22.15;;;12.82;;
35693;SDS011;21812;55.536;37.664;2022-08-21T08:37:07;20.92;;;13.52;;
35693;SDS011;21812;55.536;37.664;2022-08-21T08:39:34;20.95;;;11.98;;
35693;SDS011;21812;55.536;37.664;2022-08-21T08:42:11;19.85;;;14.05;;
35693;SDS011;21812;55.536;37.664;2022-08-21T08:44:43;24.85;;;13.75;;
35693;SDS011;21812;55.536;37.664;2022-08-21T08:47:12;21.63;;;13.48;;
35693;SDS011;21812;55.536;37.664;2022-08-21T08:49:45;20.90;;;14.70;;
35693;SDS011;21812;55.536;37.664;2022-08-21T08:52:23;22.88;;;13.73;;
35693;SDS011;21812;55.536;37.664;2022-08-21T08:57:28;22.80;;;14.75;;
35693;SDS011;21812;55.536;37.664;2022-08-21T08:59:56;28.00;;;15.63;;
35693;SDS011;21812;55.536;37.664;2022-08-21T09:02:25;24.55;;;16.58;;
35693;SDS011;21812;55.536;37.664;2022-08-21T09:04:53;24.42;;;15.23;;
35693;SDS011;21812;55.536;37.664;2022-08-21T09:10:16;20.77;;;12.35;;
35693;SDS011;21812;55.536;37.664;2022-08-21T09:24:02;11.80;;;7.75;;
35693;SDS011;21812;55.536;37.664;2022-08-21T09:29:19;14.20;;;8.65;;
35693;SDS011;21812;55.536;37.664;2022-08-21T09:31:48;31.90;;;9.57;;
35693;SDS011;21812;55.536;37.664;2022-08-21T09:34:23;11.35;;;8.13;;
35693;SDS011;21812;55.536;37.664;2022-08-21T09:36:54;13.73;;;6.72;;
35693;SDS011;21812;55.536;37.664;2022-08-21T09:39:24;13.52;;;6.57;;
35693;SDS011;21812;55.536;37.664;2022-08-21T09:41:56;15.60;;;6.95;;
35693;SDS011;21812;55.536;37.664;2022-08-21T09:44:30;9.95;;;6.70;;
35693;SDS011;21812;55.536;37.664;2022-08-21T09:46:58;11.98;;;5.53;;
35693;SDS011;21812;55.536;37.664;2022-08-21T09:49:31;13.35;;;6.07;;
35693;SDS011;21812;55.536;37.664;2022-08-21T09:51:59;11.88;;;6.00;;
35693;SDS011;21812;55.536;37.664;2022-08-21T09:54:28;12.27;;;6.55;;
35693;SDS011;21812;55.536;37.664;2022-08-21T09:56:58;10.95;;;5.15;;
35693;SDS011;21812;55.536;37.664;2022-08-21T09:59:52;15.15;;;7.55;;
35693;SDS011;21812;55.536;37.664;2022-08-21T10:04:48;8.23;;;5.13;;
35693;SDS011;21812;55.536;37.664;2022-08-21T10:07:19;18.23;;;4.90;;
35693;SDS011;21812;55.536;37.664;2022-08-21T10:09:46;10.93;;;5.15;;
35693;SDS011;21812;55.536;37.664;2022-08-21T10:12:24;10.55;;;5.43;;
35693;SDS011;21812;55.536;37.664;2022-08-21T10:15:08;13.80;;;4.65;;
35693;SDS011;21812;55.536;37.664;2022-08-21T10:17:55;10.00;;;4.15;;
35693;SDS011;21812;55.536;37.664;2022-08-21T10:20:29;7.78;;;3.60;;
35693;SDS011;21812;55.536;37.664;2022-08-21T10:28:23;10.15;;;3.60;;
35693;SDS011;21812;55.536;37.664;2022-08-21T10:42:05;8.35;;;2.83;;
35693;SDS011;21812;55.536;37.664;2022-08-21T10:47:28;7.78;;;3.53;;
35693;SDS011;21812;55.536;37.664;2022-08-21T10:50:03;8.93;;;2.95;;
35693;SDS011;21812;55.536;37.664;2022-08-21T10:55:16;6.53;;;2.47;;
35693;SDS011;21812;55.536;37.664;2022-08-21T10:57:48;3.63;;;1.60;;
35693;SDS011;21812;55.536;37.664;2022-08-21T11:00:22;8.25;;;2.15;;
35693;SDS011;21812;55.536;37.664;2022-08-21T11:02:55;3.80;;;1.45;;
35693;SDS011;21812;55.536;37.664;2022-08-21T11:05:31;7.82;;;2.03;;
35693;SDS011;21812;55.536;37.664;2022-08-21T11:13:27;4.78;;;1.90;;
35693;SDS011;21812;55.536;37.664;2022-08-21T11:16:14;10.45;;;3.30;;
35693;SDS011;21812;55.536;37.664;2022-08-21T11:19:00;9.50;;;2.75;;
35693;SDS011;21812;55.536;37.664;2022-08-21T11:21:34;4.72;;;3.58;;
35693;SDS011;21812;55.536;37.664;2022-08-21T11:29:41;5.18;;;2.47;;
35693;SDS011;21812;55.536;37.664;2022-08-21T11:54:38;4.13;;;2.00;;
35693;SDS011;21812;55.536;37.664;2022-08-21T11:57:14;5.38;;;2.20;;
35693;SDS011;21812;55.536;37.664;2022-08-21T12:02:38;7.68;;;2.25;;
35693;SDS011;21812;55.536;37.664;2022-08-21T12:05:09;6.22;;;2.65;;
35693;SDS011;21812;55.536;37.664;2022-08-21T12:07:47;22.17;;;2.95;;
35693;SDS011;21812;55.536;37.664;2022-08-21T12:10:14;18.90;;;3.85;;
35693;SDS011;21812;55.536;37.664;2022-08-21T12:12:46;9.30;;;2.03;;
35693;SDS011;21812;55.536;37.664;2022-08-21T12:15:14;21.20;;;3.33;;
35693;SDS011;21812;55.536;37.664;2022-08-21T12:17:53;12.25;;;3.55;;
35693;SDS011;21812;55.536;37.664;2022-08-21T12:28:25;12.10;;;2.40;;
35693;SDS011;21812;55.536;37.664;2022-08-21T12:30:52;7.95;;;2.22;;
35693;SDS011;21812;55.536;37.664;2022-08-21T12:36:04;8.75;;;2.65;;
35693;SDS011;21812;55.536;37.664;2022-08-21T12:41:20;9.25;;;2.72;;
35693;SDS011;21812;55.536;37.664;2022-08-21T12:43:55;9.20;;;2.10;;
35693;SDS011;21812;55.536;37.664;2022-08-21T12:46:26;9.07;;;2.53;;
35693;SDS011;21812;55.536;37.664;2022-08-21T12:49:07;10.25;;;2.78;;
35693;SDS011;21812;55.536;37.664;2022-08-21T12:54:31;10.33;;;2.77;;
35693;SDS011;21812;55.536;37.664;2022-08-21T12:57:04;20.30;;;3.30;;
35693;SDS011;21812;55.536;37.664;2022-08-21T12:59:32;16.00;;;3.33;;
35693;SDS011;21812;55.536;37.664;2022-08-21T13:02:03;10.23;;;3.00;;
35693;SDS011;21812;55.536;37.664;2022-08-21T13:04:45;8.98;;;2.92;;
35693;SDS011;21812;55.536;37.664;2022-08-21T13:07:14;9.30;;;2.80;;
35693;SDS011;21812;55.536;37.664;2022-08-21T13:09:47;7.35;;;3.47;;
35693;SDS011;21812;55.536;37.664;2022-08-21T13:12:17;16.80;;;4.20;;
35693;SDS011;21812;55.536;37.664;2022-08-21T13:14:47;6.95;;;3.97;;
35693;SDS011;21812;55.536;37.664;2022-08-21T13:17:19;12.35;;;4.07;;
35693;SDS011;21812;55.536;37.664;2022-08-21T13:19:59;18.17;;;7.13;;
35693;SDS011;21812;55.536;37.664;2022-08-21T13:22:30;18.88;;;8.55;;
35693;SDS011;21812;55.536;37.664;2022-08-21T13:24:56;27.95;;;12.05;;
35693;SDS011;21812;55.536;37.664;2022-08-21T13:27:24;17.75;;;7.00;;
35693;SDS011;21812;55.536;37.664;2022-08-21T13:30:03;21.73;;;7.47;;
35693;SDS011;21812;55.536;37.664;2022-08-21T13:32:37;19.92;;;6.95;;
35693;SDS011;21812;55.536;37.664;2022-08-21T13:35:10;19.60;;;7.22;;
35693;SDS011;21812;55.536;37.664;2022-08-21T13:37:38;13.00;;;6.28;;
35693;SDS011;21812;55.536;37.664;2022-08-21T13:40:07;17.67;;;4.75;;
35693;SDS011;21812;55.536;37.664;2022-08-21T13:42:37;22.08;;;4.75;;
35693;SDS011;21812;55.536;37.664;2022-08-21T13:45:11;11.77;;;4.22;;
35693;SDS011;21812;55.536;37.664;2022-08-21T13:47:39;8.65;;;4.57;;
35693;SDS011;21812;55.536;37.664;2022-08-21T13:50:05;13.18;;;4.18;;
35693;SDS011;21812;55.536;37.664;2022-08-21T13:52:44;13.80;;;3.70;;
35693;SDS011;21812;55.536;37.664;2022-08-21T13:55:15;8.70;;;2.90;;
35693;SDS011;21812;55.536;37.664;2022-08-21T13:57:42;10.80;;;3.20;;
35693;SDS011;21812;55.536;37.664;2022-08-21T14:02:40;7.45;;;2.85;;
35693;SDS011;21812;55.536;37.664;2022-08-21T14:05:18;5.80;;;2.78;;
35693;SDS011;21812;55.536;37.664;2022-08-21T14:07:46;12.65;;;2.33;;
35693;SDS011;21812;55.536;37.664;2022-08-21T14:10:14;7.53;;;2.50;;
35693;SDS011;21812;55.536;37.664;2022-08-21T14:15:24;6.57;;;2.42;;
35693;SDS011;21812;55.536;37.664;2022-08-21T14:17:54;8.02;;;2.80;;
35693;SDS011;21812;55.536;37.664;2022-08-21T14:20:33;8.18;;;3.70;;
35693;SDS011;21812;55.536;37.664;2022-08-21T14:23:07;7.47;;;3.05;;
35693;SDS011;21812;55.536;37.664;2022-08-21T14:25:40;8.45;;;2.67;;
35693;SDS011;21812;55.536;37.664;2022-08-21T14:30:35;9.23;;;2.75;;
35693;SDS011;21812;55.536;37.664;2022-08-21T14:33:03;7.00;;;2.95;;
35693;SDS011;21812;55.536;37.664;2022-08-21T14:35:34;6.93;;;3.20;;
35693;SDS011;21812;55.536;37.664;2022-08-21T14:38:00;11.60;;;3.15;;
35693;SDS011;21812;55.536;37.664;2022-08-21T14:40:26;8.25;;;3.63;;
35693;SDS011;21812;55.536;37.664;2022-08-21T14:42:52;12.93;;;3.90;;
35693;SDS011;21812;55.536;37.664;2022-08-21T14:45:20;5.65;;;3.30;;
35693;SDS011;21812;55.536;37.664;2022-08-21T14:47:51;8.15;;;3.85;;
35693;SDS011;21812;55.536;37.664;2022-08-21T14:50:17;7.32;;;3.47;;
35693;SDS011;21812;55.536;37.664;2022-08-21T14:52:43;8.40;;;3.70;;
35693;SDS011;21812;55.536;37.664;2022-08-21T14:55:11;10.55;;;3.90;;
35693;SDS011;21812;55.536;37.664;2022-08-21T14:57:41;7.38;;;4.50;;
35693;SDS011;21812;55.536;37.664;2022-08-21T15:00:10;11.65;;;4.50;;
35693;SDS011;21812;55.536;37.664;2022-08-21T15:02:38;10.25;;;4.55;;
35693;SDS011;21812;55.536;37.664;2022-08-21T15:05:03;10.52;;;3.97;;
35693;SDS011;21812;55.536;37.664;2022-08-21T15:07:30;9.18;;;4.47;;
35693;SDS011;21812;55.536;37.664;2022-08-21T15:09:55;14.05;;;5.38;;
35693;SDS011;21812;55.536;37.664;2022-08-21T15:12:21;9.38;;;5.03;;
35693;SDS011;21812;55.536;37.664;2022-08-21T15:14:48;10.32;;;4.88;;
35693;SDS011;21812;55.536;37.664;2022-08-21T15:17:14;9.18;;;4.10;;
35693;SDS011;21812;55.536;37.664;2022-08-21T15:19:40;7.97;;;4.13;;
35693;SDS011;21812;55.536;37.664;2022-08-21T15:22:06;11.25;;;4.38;;
35693;SDS011;21812;55.536;37.664;2022-08-21T15:24:32;6.25;;;4.03;;
35693;SDS011;21812;55.536;37.664;2022-08-21T15:26:59;6.45;;;3.70;;
35693;SDS011;21812;55.536;37.664;2022-08-21T15:29:26;8.20;;;3.67;;
35693;SDS011;21812;55.536;37.664;2022-08-21T15:31:55;8.95;;;3.92;;
35693;SDS011;21812;55.536;37.664;2022-08-21T15:34:22;6.55;;;3.55;;
35693;SDS011;21812;55.536;37.664;2022-08-21T15:36:50;8.60;;;3.78;;
35693;SDS011;21812;55.536;37.664;2022-08-21T15:39:15;8.30;;;3.72;;
35693;SDS011;21812;55.536;37.664;2022-08-21T15:41:41;11.93;;;3.15;;
35693;SDS011;21812;55.536;37.664;2022-08-21T15:44:08;11.10;;;3.13;;
35693;SDS011;21812;55.536;37.664;2022-08-21T15:46:36;3.78;;;2.72;;
35693;SDS011;21812;55.536;37.664;2022-08-21T15:49:03;6.68;;;3.10;;
35693;SDS011;21812;55.536;37.664;2022-08-21T15:51:28;5.57;;;3.08;;
35693;SDS011;21812;55.536;37.664;2022-08-21T15:53:54;10.63;;;2.97;;
35693;SDS011;21812;55.536;37.664;2022-08-21T15:56:21;7.97;;;3.00;;
35693;SDS011;21812;55.536;37.664;2022-08-21T15:58:50;6.07;;;2.60;;
35693;SDS011;21812;55.536;37.664;2022-08-21T16:01:17;8.63;;;3.00;;
35693;SDS011;21812;55.536;37.664;2022-08-21T16:03:45;6.93;;;2.72;;
35693;SDS011;21812;55.536;37.664;2022-08-21T16:06:13;10.00;;;3.20;;
35693;SDS011;21812;55.536;37.664;2022-08-21T16:08:39;10.07;;;3.35;;
35693;SDS011;21812;55.536;37.664;2022-08-21T16:11:05;7.75;;;2.65;;
35693;SDS011;21812;55.536;37.664;2022-08-21T16:13:33;8.88;;;2.60;;
35693;SDS011;21812;55.536;37.664;2022-08-21T16:18:30;12.15;;;3.65;;